sensor_id;sensor_type;location;lat;lon;timestamp;pressure;altitude;pressure_sealevel;temperature;humidity
64876;BME280;51369;49.862;9.908;2023-05-24T00:02:18;98690.97;;;12.96;64.12
64876;BME280;51369;49.862;9.908;2023-05-24T00:04:44;98694.69;;;12.94;64.61
64876;BME280;51369;49.862;9.908;2023-05-24T00:07:09;98692.19;;;12.89;64.53
64876;BME280;51369;49.862;9.908;2023-05-24T00:09:35;98702.22;;;12.87;64.44
64876;BME280;51369;49.862;9.908;2023-05-24T00:12:00;98699.59;;;12.86;64.62
64876;BME280;51369;49.862;9.908;2023-05-24T00:14:26;98695.13;;;12.85;65.01
64876;BME280;51369;49.862;9.908;2023-05-24T00:16:52;98697.84;;;12.85;65.21
64876;BME280;51369;49.862;9.908;2023-05-24T00:19:17;98693.28;;;12.85;64.77
64876;BME280;51369;49.862;9.908;2023-05-24T00:21:49;98687.88;;;12.85;65.45
64876;BME280;51369;49.862;9.908;2023-05-24T00:24:14;98695.06;;;12.86;65.93
64876;BME280;51369;49.862;9.908;2023-05-24T00:26:41;98691.47;;;12.86;65.61
64876;BME280;51369;49.862;9.908;2023-05-24T00:29:07;98691.53;;;12.84;66.17
64876;BME280;51369;49.862;9.908;2023-05-24T00:31:33;98696.16;;;12.82;66.03
64876;BME280;51369;49.862;9.908;2023-05-24T00:33:58;98695.25;;;12.82;66.74
64876;BME280;51369;49.862;9.908;2023-05-24T00:36:24;98686.13;;;12.84;65.82
64876;BME280;51369;49.862;9.908;2023-05-24T00:38:49;98685.97;;;12.87;65.63
64876;BME280;51369;49.862;9.908;2023-05-24T00:41:17;98678.66;;;12.89;65.90
64876;BME280;51369;49.862;9.908;2023-05-24T00:43:42;98681.28;;;12.91;66.12
64876;BME280;51369;49.862;9.908;2023-05-24T00:46:32;98682.16;;;12.91;65.59
64876;BME280;51369;49.862;9.908;2023-05-24T00:48:59;98675.78;;;12.92;65.05
64876;BME280;51369;49.862;9.908;2023-05-24T00:51:25;98676.75;;;12.91;65.33
64876;BME280;51369;49.862;9.908;2023-05-24T00:53:54;98675.06;;;12.89;65.60
64876;BME280;51369;49.862;9.908;2023-05-24T01:00:08;98672.56;;;12.84;65.80
64876;BME280;51369;49.862;9.908;2023-05-24T01:02:35;98665.38;;;12.83;66.18
64876;BME280;51369;49.862;9.908;2023-05-24T01:05:02;98658.22;;;12.82;65.76
64876;BME280;51369;49.862;9.908;2023-05-24T01:13:35;98663.69;;;12.81;65.80
64876;BME280;51369;49.862;9.908;2023-05-24T01:16:14;98656.38;;;12.83;65.09
64876;BME280;51369;49.862;9.908;2023-05-24T01:18:46;98664.50;;;12.83;64.37
64876;BME280;51369;49.862;9.908;2023-05-24T01:24:24;98663.69;;;12.81;64.97
64876;BME280;51369;49.862;9.908;2023-05-24T01:27:11;98662.00;;;12.78;65.09
64876;BME280;51369;49.862;9.908;2023-05-24T01:29:37;98659.31;;;12.78;63.96
64876;BME280;51369;49.862;9.908;2023-05-24T01:32:03;98663.91;;;12.76;64.15
64876;BME280;51369;49.862;9.908;2023-05-24T01:34:29;98665.81;;;12.74;64.50
64876;BME280;51369;49.862;9.908;2023-05-24T01:36:55;98662.31;;;12.72;64.22
64876;BME280;51369;49.862;9.908;2023-05-24T01:39:21;98671.44;;;12.69;63.72
64876;BME280;51369;49.862;9.908;2023-05-24T01:44:38;98678.03;;;12.64;64.95
64876;BME280;51369;49.862;9.908;2023-05-24T01:49:50;98681.75;;;12.61;65.39
64876;BME280;51369;49.862;9.908;2023-05-24T01:52:23;98677.38;;;12.59;65.63
64876;BME280;51369;49.862;9.908;2023-05-24T01:54:52;98678.38;;;12.56;64.42
64876;BME280;51369;49.862;9.908;2023-05-24T01:57:21;98678.47;;;12.55;64.38
64876;BME280;51369;49.862;9.908;2023-05-24T01:59:48;98677.56;;;12.54;64.26
64876;BME280;51369;49.862;9.908;2023-05-24T02:02:14;98674.00;;;12.54;64.57
64876;BME280;51369;49.862;9.908;2023-05-24T02:04:40;98673.09;;;12.53;65.17
64876;BME280;51369;49.862;9.908;2023-05-24T02:07:06;98674.13;;;12.51;64.42
64876;BME280;51369;49.862;9.908;2023-05-24T02:09:31;98676.09;;;12.47;64.48
64876;BME280;51369;49.862;9.908;2023-05-24T02:11:57;98671.84;;;12.42;63.70
64876;BME280;51369;49.862;9.908;2023-05-24T02:14:23;98676.50;;;12.38;63.60
64876;BME280;51369;49.862;9.908;2023-05-24T02:16:48;98676.66;;;12.35;63.62
64876;BME280;51369;49.862;9.908;2023-05-24T02:19:15;98669.53;;;12.32;63.11
64876;BME280;51369;49.862;9.908;2023-05-24T02:21:42;98670.56;;;12.30;64.09
64876;BME280;51369;49.862;9.908;2023-05-24T02:24:09;98677.00;;;12.27;63.66
64876;BME280;51369;49.862;9.908;2023-05-24T02:26:37;98674.44;;;12.24;63.43
64876;BME280;51369;49.862;9.908;2023-05-24T02:29:03;98668.19;;;12.22;64.07
64876;BME280;51369;49.862;9.908;2023-05-24T02:31:28;98673.75;;;12.19;64.31
64876;BME280;51369;49.862;9.908;2023-05-24T02:33:55;98672.94;;;12.17;65.33
64876;BME280;51369;49.862;9.908;2023-05-24T02:36:20;98675.72;;;12.16;64.98
64876;BME280;51369;49.862;9.908;2023-05-24T02:38:48;98679.38;;;12.15;64.43
64876;BME280;51369;49.862;9.908;2023-05-24T02:41:14;98674.75;;;12.17;64.13
64876;BME280;51369;49.862;9.908;2023-05-24T02:43:45;98680.25;;;12.15;63.80
64876;BME280;51369;49.862;9.908;2023-05-24T02:46:12;98673.06;;;12.14;63.71
64876;BME280;51369;49.862;9.908;2023-05-24T02:48:38;98673.25;;;12.11;64.31
64876;BME280;51369;49.862;9.908;2023-05-24T02:51:04;98677.03;;;12.07;64.77
64876;BME280;51369;49.862;9.908;2023-05-24T02:53:30;98679.00;;;12.03;64.83
64876;BME280;51369;49.862;9.908;2023-05-24T02:55:56;98682.84;;;11.98;65.25
64876;BME280;51369;49.862;9.908;2023-05-24T02:58:22;98670.31;;;11.95;65.47
64876;BME280;51369;49.862;9.908;2023-05-24T03:00:49;98670.41;;;11.94;64.54
64876;BME280;51369;49.862;9.908;2023-05-24T03:03:16;98672.22;;;11.93;65.49
64876;BME280;51369;49.862;9.908;2023-05-24T03:05:42;98676.75;;;11.93;64.79
64876;BME280;51369;49.862;9.908;2023-05-24T03:08:08;98674.06;;;11.93;64.21
64876;BME280;51369;49.862;9.908;2023-05-24T03:10:34;98674.94;;;11.93;64.46
64876;BME280;51369;49.862;9.908;2023-05-24T03:12:59;98673.97;;;11.94;64.44
64876;BME280;51369;49.862;9.908;2023-05-24T03:15:25;98673.91;;;11.96;63.89
64876;BME280;51369;49.862;9.908;2023-05-24T03:17:51;98677.50;;;11.96;64.56
64876;BME280;51369;49.862;9.908;2023-05-24T03:20:16;98672.91;;;11.98;64.19
64876;BME280;51369;49.862;9.908;2023-05-24T03:22:42;98673.78;;;11.99;64.60
64876;BME280;51369;49.862;9.908;2023-05-24T03:25:08;98665.72;;;11.97;63.23
64876;BME280;51369;49.862;9.908;2023-05-24T03:27:37;98666.75;;;11.95;64.25
64876;BME280;51369;49.862;9.908;2023-05-24T03:30:03;98671.22;;;11.96;63.35
64876;BME280;51369;49.862;9.908;2023-05-24T03:32:34;98669.44;;;11.95;63.68
64876;BME280;51369;49.862;9.908;2023-05-24T03:34:59;98671.28;;;11.94;63.30
64876;BME280;51369;49.862;9.908;2023-05-24T03:37:26;98668.63;;;11.93;63.86
64876;BME280;51369;49.862;9.908;2023-05-24T03:39:52;98669.72;;;11.89;62.68
64876;BME280;51369;49.862;9.908;2023-05-24T03:42:30;98670.72;;;11.86;64.05
64876;BME280;51369;49.862;9.908;2023-05-24T03:44:55;98674.44;;;11.84;63.51
64876;BME280;51369;49.862;9.908;2023-05-24T03:47:21;98670.94;;;11.82;63.59
64876;BME280;51369;49.862;9.908;2023-05-24T03:49:46;98677.34;;;11.79;63.90
64876;BME280;51369;49.862;9.908;2023-05-24T03:52:11;98673.75;;;11.79;63.89
64876;BME280;51369;49.862;9.908;2023-05-24T03:54:37;98675.59;;;11.78;63.44
64876;BME280;51369;49.862;9.908;2023-05-24T03:57:03;98678.31;;;11.77;63.17
64876;BME280;51369;49.862;9.908;2023-05-24T03:59:29;98672.09;;;11.74;63.85
64876;BME280;51369;49.862;9.908;2023-05-24T04:01:55;98678.47;;;11.73;63.94
64876;BME280;51369;49.862;9.908;2023-05-24T04:04:21;98674.06;;;11.71;63.30
64876;BME280;51369;49.862;9.908;2023-05-24T04:06:46;98682.22;;;11.69;63.17
64876;BME280;51369;49.862;9.908;2023-05-24T04:09:14;98674.31;;;11.65;63.00
64876;BME280;51369;49.862;9.908;2023-05-24T04:11:40;98678.91;;;11.63;63.22
64876;BME280;51369;49.862;9.908;2023-05-24T04:14:06;98675.31;;;11.62;63.47
64876;BME280;51369;49.862;9.908;2023-05-24T04:16:31;98673.56;;;11.61;63.39
64876;BME280;51369;49.862;9.908;2023-05-24T04:18:58;98672.75;;;11.59;63.80
64876;BME280;51369;49.862;9.908;2023-05-24T04:21:26;98667.41;;;11.58;64.32
64876;BME280;51369;49.862;9.908;2023-05-24T04:23:52;98668.28;;;11.58;64.13
64876;BME280;51369;49.862;9.908;2023-05-24T04:26:18;98672.88;;;11.56;63.82
64876;BME280;51369;49.862;9.908;2023-05-24T04:28:45;98670.16;;;11.56;64.14
64876;BME280;51369;49.862;9.908;2023-05-24T04:31:12;98673.00;;;11.53;63.96
64876;BME280;51369;49.862;9.908;2023-05-24T04:33:39;98672.13;;;11.53;63.39
64876;BME280;51369;49.862;9.908;2023-05-24T04:36:05;98682.13;;;11.51;63.63
64876;BME280;51369;49.862;9.908;2023-05-24T04:38:32;98682.13;;;11.51;63.44
64876;BME280;51369;49.862;9.908;2023-05-24T04:41:01;98667.66;;;11.52;63.87
64876;BME280;51369;49.862;9.908;2023-05-24T04:43:27;98683.81;;;11.53;63.76
64876;BME280;51369;49.862;9.908;2023-05-24T04:45:53;98680.09;;;11.56;64.26
64876;BME280;51369;49.862;9.908;2023-05-24T04:48:19;98679.16;;;11.57;63.99
64876;BME280;51369;49.862;9.908;2023-05-24T04:50:46;98679.97;;;11.59;63.78
64876;BME280;51369;49.862;9.908;2023-05-24T04:53:12;98680.78;;;11.61;63.08
64876;BME280;51369;49.862;9.908;2023-05-24T04:55:39;98687.97;;;11.62;63.86
64876;BME280;51369;49.862;9.908;2023-05-24T04:58:04;98688.78;;;11.64;63.07
64876;BME280;51369;49.862;9.908;2023-05-24T05:00:29;98690.47;;;11.66;64.42
64876;BME280;51369;49.862;9.908;2023-05-24T05:02:55;98692.16;;;11.69;63.62
64876;BME280;51369;49.862;9.908;2023-05-24T05:05:20;98698.47;;;11.69;63.89
64876;BME280;51369;49.862;9.908;2023-05-24T05:07:45;98705.63;;;11.70;63.03
64876;BME280;51369;49.862;9.908;2023-05-24T05:10:11;98704.69;;;11.71;63.85
64876;BME280;51369;49.862;9.908;2023-05-24T05:12:36;98708.22;;;11.73;63.66
64876;BME280;51369;49.862;9.908;2023-05-24T05:15:03;98716.25;;;11.75;63.89
64876;BME280;51369;49.862;9.908;2023-05-24T05:17:28;98716.19;;;11.77;63.34
64876;BME280;51369;49.862;9.908;2023-05-24T05:19:54;98716.16;;;11.78;63.54
64876;BME280;51369;49.862;9.908;2023-05-24T05:22:19;98717.91;;;11.79;62.60
64876;BME280;51369;49.862;9.908;2023-05-24T05:24:45;98721.56;;;11.78;62.72
64876;BME280;51369;49.862;9.908;2023-05-24T05:27:10;98727.00;;;11.78;61.43
64876;BME280;51369;49.862;9.908;2023-05-24T05:29:36;98721.50;;;11.80;63.33
64876;BME280;51369;49.862;9.908;2023-05-24T05:32:01;98719.63;;;11.82;62.03
64876;BME280;51369;49.862;9.908;2023-05-24T05:34:26;98724.09;;;11.83;62.59
64876;BME280;51369;49.862;9.908;2023-05-24T05:36:52;98724.91;;;11.85;61.76
64876;BME280;51369;49.862;9.908;2023-05-24T05:39:17;98724.78;;;11.88;62.31
64876;BME280;51369;49.862;9.908;2023-05-24T05:41:42;98722.94;;;11.88;62.20
64876;BME280;51369;49.862;9.908;2023-05-24T05:44:11;98725.59;;;11.90;62.22
64876;BME280;51369;49.862;9.908;2023-05-24T05:46:37;98729.84;;;11.95;62.72
64876;BME280;51369;49.862;9.908;2023-05-24T05:49:03;98726.00;;;12.01;63.60
64876;BME280;51369;49.862;9.908;2023-05-24T05:51:28;98735.69;;;12.07;62.81
64876;BME280;51369;49.862;9.908;2023-05-24T05:53:54;98734.44;;;12.14;63.44
64876;BME280;51369;49.862;9.908;2023-05-24T05:56:20;98725.19;;;12.19;62.98
64876;BME280;51369;49.862;9.908;2023-05-24T05:58:45;98731.41;;;12.21;62.71
64876;BME280;51369;49.862;9.908;2023-05-24T06:01:11;98730.25;;;12.27;61.49
64876;BME280;51369;49.862;9.908;2023-05-24T06:03:36;98737.16;;;12.34;62.01
64876;BME280;51369;49.862;9.908;2023-05-24T06:06:02;98733.44;;;12.36;61.87
64876;BME280;51369;49.862;9.908;2023-05-24T06:08:28;98736.09;;;12.38;61.33
64876;BME280;51369;49.862;9.908;2023-05-24T06:10:59;98738.72;;;12.39;61.93
64876;BME280;51369;49.862;9.908;2023-05-24T06:13:24;98744.13;;;12.39;60.79
64876;BME280;51369;49.862;9.908;2023-05-24T06:15:52;98742.25;;;12.42;61.02
64876;BME280;51369;49.862;9.908;2023-05-24T06:18:18;98744.88;;;12.43;61.86
64876;BME280;51369;49.862;9.908;2023-05-24T06:20:43;98742.91;;;12.47;61.41
64876;BME280;51369;49.862;9.908;2023-05-24T06:23:08;98748.19;;;12.50;60.75
64876;BME280;51369;49.862;9.908;2023-05-24T06:25:34;98739.72;;;12.57;62.07
64876;BME280;51369;49.862;9.908;2023-05-24T06:27:59;98750.50;;;12.59;62.75
64876;BME280;51369;49.862;9.908;2023-05-24T06:30:25;98746.69;;;12.63;62.65
64876;BME280;51369;49.862;9.908;2023-05-24T06:32:50;98751.84;;;12.69;61.47
64876;BME280;51369;49.862;9.908;2023-05-24T06:35:16;98747.16;;;12.73;61.22
64876;BME280;51369;49.862;9.908;2023-05-24T06:37:41;98740.72;;;12.75;60.59
64876;BME280;51369;49.862;9.908;2023-05-24T06:40:07;98747.78;;;12.79;61.03
64876;BME280;51369;49.862;9.908;2023-05-24T06:42:34;98757.59;;;12.82;61.52
64876;BME280;51369;49.862;9.908;2023-05-24T06:45:00;98749.38;;;12.83;61.33
64876;BME280;51369;49.862;9.908;2023-05-24T06:47:26;98748.38;;;12.86;61.96
64876;BME280;51369;49.862;9.908;2023-05-24T06:49:52;98749.19;;;12.88;61.66
64876;BME280;51369;49.862;9.908;2023-05-24T06:52:17;98753.50;;;12.92;62.31
64876;BME280;51369;49.862;9.908;2023-05-24T06:54:43;98757.03;;;12.94;62.32
64876;BME280;51369;49.862;9.908;2023-05-24T06:57:08;98753.22;;;12.98;62.42
64876;BME280;51369;49.862;9.908;2023-05-24T06:59:34;98761.22;;;13.01;62.48
64876;BME280;51369;49.862;9.908;2023-05-24T07:01:59;98763.63;;;13.07;62.47
64876;BME280;51369;49.862;9.908;2023-05-24T07:04:25;98759.69;;;13.14;62.06
64876;BME280;51369;49.862;9.908;2023-05-24T07:06:51;98759.38;;;13.22;61.94
64876;BME280;51369;49.862;9.908;2023-05-24T07:09:17;98760.75;;;13.30;61.41
64876;BME280;51369;49.862;9.908;2023-05-24T07:11:43;98774.75;;;13.40;61.56
64876;BME280;51369;49.862;9.908;2023-05-24T07:14:09;98760.75;;;13.49;58.23
64876;BME280;51369;49.862;9.908;2023-05-24T07:16:34;98763.97;;;13.57;57.94
64876;BME280;51369;49.862;9.908;2023-05-24T07:18:59;98762.88;;;13.61;58.98
64876;BME280;51369;49.862;9.908;2023-05-24T07:21:25;98759.06;;;13.65;58.68
64876;BME280;51369;49.862;9.908;2023-05-24T07:23:50;98759.94;;;13.66;58.53
64876;BME280;51369;49.862;9.908;2023-05-24T07:26:16;98759.88;;;13.67;58.59
64876;BME280;51369;49.862;9.908;2023-05-24T07:28:42;98758.84;;;13.70;57.93
64876;BME280;51369;49.862;9.908;2023-05-24T07:31:08;98755.00;;;13.74;58.68
64876;BME280;51369;49.862;9.908;2023-05-24T07:33:36;98765.56;;;13.80;57.98
64876;BME280;51369;49.862;9.908;2023-05-24T07:36:05;98758.06;;;13.85;58.12
64876;BME280;51369;49.862;9.908;2023-05-24T07:38:31;98765.00;;;13.91;57.33
64876;BME280;51369;49.862;9.908;2023-05-24T07:41:00;98765.81;;;13.93;57.46
64876;BME280;51369;49.862;9.908;2023-05-24T07:43:28;98761.97;;;13.97;57.39
64876;BME280;51369;49.862;9.908;2023-05-24T07:45:53;98765.50;;;13.99;57.57
64876;BME280;51369;49.862;9.908;2023-05-24T07:48:19;98768.94;;;14.02;57.36
64876;BME280;51369;49.862;9.908;2023-05-24T07:50:48;98764.31;;;14.05;57.00
64876;BME280;51369;49.862;9.908;2023-05-24T07:53:17;98755.34;;;14.02;56.48
64876;BME280;51369;49.862;9.908;2023-05-24T07:55:42;98762.53;;;14.04;56.33
64876;BME280;51369;49.862;9.908;2023-05-24T07:58:09;98760.56;;;14.07;56.46
64876;BME280;51369;49.862;9.908;2023-05-24T08:00:35;98757.75;;;14.09;55.71
64876;BME280;51369;49.862;9.908;2023-05-24T08:03:00;98761.28;;;14.11;55.81
64876;BME280;51369;49.862;9.908;2023-05-24T08:05:25;98765.69;;;14.13;55.05
64876;BME280;51369;49.862;9.908;2023-05-24T08:07:51;98765.53;;;14.16;55.65
64876;BME280;51369;49.862;9.908;2023-05-24T08:10:18;98771.59;;;14.21;55.05
64876;BME280;51369;49.862;9.908;2023-05-24T08:12:43;98766.09;;;14.23;55.18
64876;BME280;51369;49.862;9.908;2023-05-24T08:15:09;98770.47;;;14.25;54.94
64876;BME280;51369;49.862;9.908;2023-05-24T08:17:36;98780.22;;;14.29;54.72
64876;BME280;51369;49.862;9.908;2023-05-24T08:20:02;98778.16;;;14.34;55.23
64876;BME280;51369;49.862;9.908;2023-05-24T08:22:32;98778.81;;;14.40;55.27
64876;BME280;51369;49.862;9.908;2023-05-24T08:24:58;98787.72;;;14.43;55.12
64876;BME280;51369;49.862;9.908;2023-05-24T08:27:23;98777.56;;;14.47;54.11
64876;BME280;51369;49.862;9.908;2023-05-24T08:29:49;98789.16;;;14.50;54.45
64876;BME280;51369;49.862;9.908;2023-05-24T08:32:14;98782.50;;;14.56;54.56
64876;BME280;51369;49.862;9.908;2023-05-24T08:34:40;98780.44;;;14.61;54.66
64876;BME280;51369;49.862;9.908;2023-05-24T08:37:05;98786.50;;;14.66;54.52
64876;BME280;51369;49.862;9.908;2023-05-24T08:39:31;98791.78;;;14.69;54.11
64876;BME280;51369;49.862;9.908;2023-05-24T08:41:57;98785.31;;;14.72;53.43
64876;BME280;51369;49.862;9.908;2023-05-24T08:44:27;98791.63;;;14.72;53.80
64876;BME280;51369;49.862;9.908;2023-05-24T08:46:54;98788.41;;;14.81;53.20
64876;BME280;51369;49.862;9.908;2023-05-24T08:49:20;98793.19;;;14.93;52.38
64876;BME280;51369;49.862;9.908;2023-05-24T08:51:46;98786.31;;;15.04;51.80
64876;BME280;51369;49.862;9.908;2023-05-24T08:54:12;98779.41;;;15.14;51.96
64876;BME280;51369;49.862;9.908;2023-05-24T08:56:39;98781.53;;;15.24;50.83
64876;BME280;51369;49.862;9.908;2023-05-24T08:59:07;98795.50;;;15.34;50.99
64876;BME280;51369;49.862;9.908;2023-05-24T09:01:33;98790.19;;;15.48;50.53
64876;BME280;51369;49.862;9.908;2023-05-24T09:04:01;98781.44;;;15.59;49.98
64876;BME280;51369;49.862;9.908;2023-05-24T09:06:28;98780.88;;;15.68;50.66
64876;BME280;51369;49.862;9.908;2023-05-24T09:08:55;98771.22;;;15.78;50.39
64876;BME280;51369;49.862;9.908;2023-05-24T09:11:22;98770.88;;;15.84;50.10
64876;BME280;51369;49.862;9.908;2023-05-24T09:13:48;98769.38;;;15.94;51.08
64876;BME280;51369;49.862;9.908;2023-05-24T09:16:14;98774.56;;;15.99;51.52
64876;BME280;51369;49.862;9.908;2023-05-24T09:18:40;98775.94;;;16.06;50.96
64876;BME280;51369;49.862;9.908;2023-05-24T09:21:12;98767.31;;;16.14;51.13
64876;BME280;51369;49.862;9.908;2023-05-24T09:23:38;98770.06;;;16.14;50.84
64876;BME280;51369;49.862;9.908;2023-05-24T09:26:08;98774.63;;;16.13;50.68
64876;BME280;51369;49.862;9.908;2023-05-24T09:28:34;98771.03;;;16.13;50.16
64876;BME280;51369;49.862;9.908;2023-05-24T09:31:01;98772.78;;;16.14;50.23
64876;BME280;51369;49.862;9.908;2023-05-24T09:33:31;98765.31;;;16.17;50.28
64876;BME280;51369;49.862;9.908;2023-05-24T09:35:58;98770.47;;;16.22;49.50
64876;BME280;51369;49.862;9.908;2023-05-24T09:38:25;98766.59;;;16.26;49.64
64876;BME280;51369;49.862;9.908;2023-05-24T09:41:03;98770.22;;;16.26;49.77
64876;BME280;51369;49.862;9.908;2023-05-24T09:43:33;98771.78;;;16.31;49.29
64876;BME280;51369;49.862;9.908;2023-05-24T09:46:01;98769.94;;;16.31;48.05
64876;BME280;51369;49.862;9.908;2023-05-24T09:48:27;98769.06;;;16.31;49.81
64876;BME280;51369;49.862;9.908;2023-05-24T09:51:05;98772.75;;;16.30;50.50
64876;BME280;51369;49.862;9.908;2023-05-24T09:53:32;98774.50;;;16.31;50.60
64876;BME280;51369;49.862;9.908;2023-05-24T09:56:04;98766.50;;;16.27;50.41
64876;BME280;51369;49.862;9.908;2023-05-24T09:58:31;98767.38;;;16.28;51.00
64876;BME280;51369;49.862;9.908;2023-05-24T10:01:05;98774.97;;;16.23;51.02
64876;BME280;51369;49.862;9.908;2023-05-24T10:03:31;98767.06;;;16.18;50.68
64876;BME280;51369;49.862;9.908;2023-05-24T10:05:57;98766.72;;;16.09;50.72
64876;BME280;51369;49.862;9.908;2023-05-24T10:08:23;98776.31;;;16.00;50.37
64876;BME280;51369;49.862;9.908;2023-05-24T10:10:48;98782.13;;;15.94;51.04
64876;BME280;51369;49.862;9.908;2023-05-24T10:13:14;98781.50;;;15.89;51.11
64876;BME280;51369;49.862;9.908;2023-05-24T10:15:43;98784.41;;;15.86;50.62
64876;BME280;51369;49.862;9.908;2023-05-24T10:18:09;98786.34;;;15.84;51.35
64876;BME280;51369;49.862;9.908;2023-05-24T10:20:35;98788.25;;;15.82;50.59
64876;BME280;51369;49.862;9.908;2023-05-24T10:23:03;98788.44;;;15.79;50.50
64876;BME280;51369;49.862;9.908;2023-05-24T10:25:34;98791.94;;;15.81;51.15
64876;BME280;51369;49.862;9.908;2023-05-24T10:28:08;98787.47;;;15.80;51.11
64876;BME280;51369;49.862;9.908;2023-05-24T10:30:44;98788.97;;;15.85;50.45
64876;BME280;51369;49.862;9.908;2023-05-24T10:33:13;98781.59;;;15.87;49.98
64876;BME280;51369;49.862;9.908;2023-05-24T10:35:40;98786.69;;;15.93;51.79
64876;BME280;51369;49.862;9.908;2023-05-24T10:38:07;98778.25;;;15.98;51.17
64876;BME280;51369;49.862;9.908;2023-05-24T10:40:33;98788.78;;;16.04;51.16
64876;BME280;51369;49.862;9.908;2023-05-24T10:43:03;98780.44;;;16.07;50.48
64876;BME280;51369;49.862;9.908;2023-05-24T10:45:29;98782.97;;;16.10;50.90
64876;BME280;51369;49.862;9.908;2023-05-24T10:50:37;98783.16;;;16.07;49.63
64876;BME280;51369;49.862;9.908;2023-05-24T10:53:16;98777.88;;;16.04;49.59
64876;BME280;51369;49.862;9.908;2023-05-24T10:55:56;98778.06;;;16.01;49.50
64876;BME280;51369;49.862;9.908;2023-05-24T10:58:26;98783.41;;;16.03;49.86
64876;BME280;51369;49.862;9.908;2023-05-24T11:00:52;98781.75;;;16.00;49.21
64876;BME280;51369;49.862;9.908;2023-05-24T11:03:17;98782.72;;;15.99;50.19
64876;BME280;51369;49.862;9.908;2023-05-24T11:08:28;98781.66;;;16.02;50.43
64876;BME280;51369;49.862;9.908;2023-05-24T11:11:11;98786.16;;;16.03;50.11
64876;BME280;51369;49.862;9.908;2023-05-24T11:13:38;98784.03;;;16.08;50.33
64876;BME280;51369;49.862;9.908;2023-05-24T11:16:04;98777.72;;;16.07;49.97
64876;BME280;51369;49.862;9.908;2023-05-24T11:18:30;98783.94;;;16.09;50.58
64876;BME280;51369;49.862;9.908;2023-05-24T11:20:58;98785.59;;;16.12;50.45
64876;BME280;51369;49.862;9.908;2023-05-24T11:23:24;98777.16;;;16.16;49.89
64876;BME280;51369;49.862;9.908;2023-05-24T11:25:49;98757.97;;;16.34;51.51
64876;BME280;51369;49.862;9.908;2023-05-24T11:28:15;98777.00;;;16.65;50.64
64876;BME280;51369;49.862;9.908;2023-05-24T11:30:42;98770.25;;;17.01;50.20
64876;BME280;51369;49.862;9.908;2023-05-24T11:33:17;98766.34;;;17.33;47.90
64876;BME280;51369;49.862;9.908;2023-05-24T11:35:44;98767.56;;;17.56;47.21
64876;BME280;51369;49.862;9.908;2023-05-24T11:38:11;98755.97;;;17.67;47.04
64876;BME280;51369;49.862;9.908;2023-05-24T11:40:44;98758.72;;;17.67;45.03
64876;BME280;51369;49.862;9.908;2023-05-24T11:43:15;98754.41;;;17.63;44.70
64876;BME280;51369;49.862;9.908;2023-05-24T11:45:42;98756.34;;;17.75;45.79
64876;BME280;51369;49.862;9.908;2023-05-24T11:48:09;98747.16;;;17.90;44.52
64876;BME280;51369;49.862;9.908;2023-05-24T11:50:39;98745.25;;;18.05;45.39
64876;BME280;51369;49.862;9.908;2023-05-24T11:53:05;98738.97;;;18.17;43.30
64876;BME280;51369;49.862;9.908;2023-05-24T11:55:33;98732.75;;;18.28;44.18
64876;BME280;51369;49.862;9.908;2023-05-24T11:58:00;98726.25;;;18.43;44.31
64876;BME280;51369;49.862;9.908;2023-05-24T12:00:26;98737.97;;;18.58;44.46
64876;BME280;51369;49.862;9.908;2023-05-24T12:02:55;98727.19;;;18.69;44.00
64876;BME280;51369;49.862;9.908;2023-05-24T12:05:21;98734.88;;;18.76;42.82
64876;BME280;51369;49.862;9.908;2023-05-24T12:07:47;98728.53;;;18.76;42.41
64876;BME280;51369;49.862;9.908;2023-05-24T12:10:16;98730.28;;;18.77;43.63
64876;BME280;51369;49.862;9.908;2023-05-24T12:12:43;98732.25;;;18.88;43.49
64876;BME280;51369;49.862;9.908;2023-05-24T12:15:09;98730.16;;;18.91;43.65
64876;BME280;51369;49.862;9.908;2023-05-24T12:17:35;98728.63;;;19.00;44.18
64876;BME280;51369;49.862;9.908;2023-05-24T12:20:02;98733.75;;;19.17;43.55
64876;BME280;51369;49.862;9.908;2023-05-24T12:22:28;98723.09;;;19.38;43.67
64876;BME280;51369;49.862;9.908;2023-05-24T12:24:56;98720.16;;;19.54;43.16
64876;BME280;51369;49.862;9.908;2023-05-24T12:27:26;98717.16;;;19.69;43.51
64876;BME280;51369;49.862;9.908;2023-05-24T12:29:51;98705.13;;;19.96;42.84
64876;BME280;51369;49.862;9.908;2023-05-24T12:32:17;98695.41;;;20.27;46.33
64876;BME280;51369;49.862;9.908;2023-05-24T12:34:43;98695.19;;;20.54;44.47
64876;BME280;51369;49.862;9.908;2023-05-24T12:37:10;98700.59;;;20.66;42.81
64876;BME280;51369;49.862;9.908;2023-05-24T12:39:36;98697.34;;;20.72;42.12
64876;BME280;51369;49.862;9.908;2023-05-24T12:42:03;98705.69;;;20.71;41.27
64876;BME280;51369;49.862;9.908;2023-05-24T12:44:30;98709.53;;;20.57;41.36
64876;BME280;51369;49.862;9.908;2023-05-24T12:46:57;98704.38;;;20.41;41.48
64876;BME280;51369;49.862;9.908;2023-05-24T12:49:24;98700.94;;;20.38;44.51
64876;BME280;51369;49.862;9.908;2023-05-24T12:51:51;98700.19;;;20.36;44.63
64876;BME280;51369;49.862;9.908;2023-05-24T12:54:18;98706.41;;;20.51;45.37
64876;BME280;51369;49.862;9.908;2023-05-24T12:56:44;98695.47;;;20.73;44.35
64876;BME280;51369;49.862;9.908;2023-05-24T12:59:09;98690.88;;;20.96;40.98
64876;BME280;51369;49.862;9.908;2023-05-24T13:01:35;98687.16;;;21.19;42.69
64876;BME280;51369;49.862;9.908;2023-05-24T13:04:01;98687.94;;;21.43;42.37
64876;BME280;51369;49.862;9.908;2023-05-24T13:06:26;98683.78;;;21.60;40.83
64876;BME280;51369;49.862;9.908;2023-05-24T13:08:52;98682.66;;;21.63;41.05
64876;BME280;51369;49.862;9.908;2023-05-24T13:11:17;98685.44;;;21.52;42.50
64876;BME280;51369;49.862;9.908;2023-05-24T13:13:43;98691.44;;;21.34;42.67
64876;BME280;51369;49.862;9.908;2023-05-24T13:16:11;98687.91;;;21.10;41.75
64876;BME280;51369;49.862;9.908;2023-05-24T13:18:37;98681.50;;;20.87;42.42
64876;BME280;51369;49.862;9.908;2023-05-24T13:21:03;98676.75;;;20.67;41.78
64876;BME280;51369;49.862;9.908;2023-05-24T13:23:33;98682.94;;;20.46;41.29